Tuesday, September 30, 2014
20:01 UTC
  |  Log In   |  Register Free
Airport Search:

Faribault Municipal Airport
(KFBL)

Faribault Municipal Airport Diagram
No Airport Diagram Available

FAA data valid effective September 18, 2014 - November 13, 2014 (unless otherwise noted).

 
 
 
 
 
 
 
 
 
 
 
 
 
 

Current Aviation Weather for Faribault Municipal Airport (KFBL)

The most recent METAR observation for KFBL was updated at: 1911
METAR Summary (Translated METAR)
KFBL
301854Z AUTO 10007KT 10SM CLR 13/07 A2997 RMK AO2
KOWA
301855Z AUTO 11012KT 10SM CLR 13/07 A2996 RMK AO2
(12.5 nm SE from KFBL)
KSYN
301853Z AUTO 11008KT 10SM SCT070 SCT080 13/07 A2997 RMK AO2 T01310065
(15.5 nm NE from KFBL)
TAF
No TAF information found within 50 nm of KFBL
  Airport Weather Conditions for KFBL

 Current Weather at FBL
55° F
Fair
East winds at 8.1 mph
FBL NOAA Radar

Pressure: 29.97 in
Humidity: 67%
Wind: East at 8.1 MPH (7 KT)
Dew Point: 44.6°F
Visibility: 10.00 mi


Airport Weather Forecast for KFBL

Translated METAR and TAF for KFBL
Translated METAR for KFBL (1956 UTC 30 September 2014)
found at http://aviationweather.gov/adds/metars/
 
METAR text: KFBL 301933Z AUTO 10008G14KT 10SM SCT060 14/08 A2995 RMK AO2
Conditions at: KFBL (FARIBAULT MUNI , MN, US) observed 1933 UTC 30 September 2014
Temperature: 14.0°C (57°F)
Dewpoint: 8.0°C (46°F) [RH = 67%]
Pressure (altimeter): 29.95 inches Hg (1014.3 mb)
Winds: from the E (100 degrees) at 9 MPH (8 knots; 4.2 m/s)
gusting to 16 MPH (14 knots; 7.3 m/s)
Visibility: 10 or more miles (16+ km)
Ceiling: at least 12,000 feet AGL
Clouds: scattered clouds at 6000 feet AGL
Weather: automated observation with no human augmentation;
there may or may not be significant weather present at this time
Translated TAF for KFBL

There is no translated TAF available for this airport

Find All Airport Services Find A Hotel Find A Rental Car Find A Golf Course Find A Restaurant $100 Hamburger



FBO's on the Field
FBO Company Facility Photos Services Transportation Aviation Fuel Prices: Prices include tax
Catering Weather Repair Courtesy Rental Type 100LL JetA JetA+ MOGAS 8087
 
Quality Aviation

This FBO has not yet been rated
FS:Independent
Last Updated: Aug-25
Login to update fuel prices
SS:
Contact Quality AviationMore FBO Information
 
Add another FBO Facility Photos Catering Weather Repair Courtesy Rental Type 100LL JetA JetA+ MOGAS 8087
Services Transportation Aviation Fuel Prices: Prices include tax


model-print
model-print
model-print
model-print